Time;durP1;ratioP1;P1;durP2;ratioP2;P2;SDS_P1;SDS_P2;PMS_P1;PMS_P2;Temp;Humidity;BMP_temperature;BMP_pressure;BME280_temperature;BME280_humidity;BME280_pressure;Samples;Min_cycle;Max_cycle;Signal;HPM_P1;HPM_P2
2022/05/10 00:01:24;;;;;;;9.95;4.47;;;12.60;99.90;;;;;;4982172;28;20037;-62
2022/05/10 00:03:50;;;;;;;12.90;4.75;;;12.60;99.90;;;;;;5014767;28;20048;-62
2022/05/10 00:06:15;;;;;;;12.73;4.57;;;12.40;99.90;;;;;;4998324;28;20128;-62
2022/05/10 00:08:42;;;;;;;11.52;4.65;;;12.50;99.90;;;;;;4997642;28;20081;-62
2022/05/10 00:11:09;;;;;;;8.48;4.18;;;12.60;99.90;;;;;;4994263;28;20042;-62
2022/05/10 00:13:35;;;;;;;14.68;5.00;;;12.40;99.90;;;;;;4995154;28;20046;-63
2022/05/10 00:16:00;;;;;;;11.25;4.10;;;12.50;99.90;;;;;;4996021;28;20053;-62
2022/05/10 00:18:28;;;;;;;9.15;4.82;;;12.50;99.90;;;;;;4978480;28;20034;-62
2022/05/10 00:20:54;;;;;;;10.10;3.90;;;12.40;99.90;;;;;;4995910;28;20046;-62
2022/05/10 00:23:20;;;;;;;11.70;4.53;;;12.40;99.90;;;;;;4995213;28;20038;-62
2022/05/10 00:25:46;;;;;;;6.97;4.05;;;12.30;99.90;;;;;;4996330;28;20038;-62
2022/05/10 00:28:11;;;;;;;6.72;3.85;;;12.00;99.90;;;;;;4978462;28;20042;-62
2022/05/10 00:30:38;;;;;;;12.68;5.03;;;12.30;99.90;;;;;;4962936;28;20475;-62
2022/05/10 00:33:04;;;;;;;9.23;4.35;;;12.00;99.90;;;;;;4996061;28;20042;-62
2022/05/10 00:35:33;;;;;;;13.43;4.68;;;11.90;99.90;;;;;;4977812;28;20038;-62
2022/05/10 00:38:00;;;;;;;8.00;4.15;;;12.10;99.90;;;;;;4994551;28;20042;-62
2022/05/10 00:40:31;;;;;;;9.40;3.97;;;11.90;99.90;;;;;;4995981;28;20038;-62
2022/05/10 00:43:18;;;;;;;8.30;4.13;;;12.00;99.90;;;;;;4994194;28;20050;-62
2022/05/10 00:46:16;;;;;;;8.35;4.20;;;12.10;99.90;;;;;;4987410;28;20068;-62
2022/05/10 00:49:04;;;;;;;5.47;3.28;;;12.00;99.90;;;;;;5015509;28;20042;-62
2022/05/10 00:52:03;;;;;;;7.35;4.35;;;11.70;99.90;;;;;;5014927;28;20085;-62
2022/05/10 00:54:41;;;;;;;11.57;4.75;;;11.80;99.90;;;;;;4996943;28;20080;-62
2022/05/10 00:57:11;;;;;;;10.82;3.97;;;11.90;99.90;;;;;;4996607;28;20511;-62
2022/05/10 00:59:58;;;;;;;8.02;4.00;;;11.80;99.90;;;;;;4997529;28;20084;-61
2022/05/10 01:02:45;;;;;;;12.90;4.30;;;11.80;99.90;;;;;;4997648;28;20053;-63
2022/05/10 01:05:23;;;;;;;9.55;3.80;;;12.00;99.90;;;;;;5014355;28;20042;-62
2022/05/10 01:08:00;;;;;;;6.47;4.28;;;11.90;99.90;;;;;;5013300;28;20100;-62
2022/05/10 01:10:36;;;;;;;6.57;4.05;;;11.90;99.90;;;;;;5014761;28;20124;-62
2022/05/10 01:13:24;;;;;;;7.72;4.43;;;12.00;99.90;;;;;;5014282;28;20488;-62
2022/05/10 01:16:04;;;;;;;11.15;4.40;;;11.90;99.90;;;;;;4997374;28;20053;-62
2022/05/10 01:18:30;;;;;;;11.30;3.90;;;;;;;;;;4997452;28;20037;-62
2022/05/10 01:21:23;;;;;;;8.45;3.80;;;11.70;99.90;;;;;;4997202;28;20049;-62
2022/05/10 01:24:21;;;;;;;8.60;4.18;;;11.80;99.90;;;;;;5014463;28;20050;-62
2022/05/10 01:27:05;;;;;;;10.38;4.00;;;11.60;99.90;;;;;;5013446;28;20056;-62
2022/05/10 01:29:53;;;;;;;16.55;5.88;;;11.70;99.90;;;;;;5013582;28;20052;-62
2022/05/10 01:35:23;;;;;;;8.68;5.90;;;12.20;99.90;;;;;;5017290;28;20046;-62
2022/05/10 01:37:55;;;;;;;13.15;6.13;;;12.30;99.90;;;;;;5018657;28;20048;-62
2022/05/10 01:40:35;;;;;;;10.43;5.53;;;12.20;99.90;;;;;;5018648;28;20045;-62
2022/05/10 01:43:17;;;;;;;12.82;6.60;;;12.10;99.90;;;;;;5017361;28;20385;-62
2022/05/10 01:45:46;;;;;;;11.75;6.00;;;12.60;99.90;;;;;;4969368;28;20046;-62
2022/05/10 01:48:17;;;;;;;10.10;5.45;;;12.40;99.90;;;;;;5017713;28;20045;-62
2022/05/10 01:51:12;;;;;;;16.17;6.72;;;12.60;99.90;;;;;;5017064;28;20400;-62
2022/05/10 01:53:40;;;;;;;12.88;5.70;;;12.60;99.90;;;;;;5008889;28;20060;-62
2022/05/10 01:56:09;;;;;;;14.35;6.43;;;12.60;99.90;;;;;;5017472;28;20038;-62
2022/05/10 01:58:37;;;;;;;9.68;5.90;;;12.80;99.90;;;;;;5016670;28;20097;-62
2022/05/10 02:01:28;;;;;;;15.07;6.72;;;12.90;99.90;;;;;;5018084;28;20049;-62
2022/05/10 02:04:05;;;;;;;11.15;5.80;;;13.00;99.90;;;;;;5016956;28;20046;-62
2022/05/10 02:06:51;;;;;;;13.43;6.38;;;12.80;99.90;;;;;;5000769;28;20049;-62
2022/05/10 02:09:20;;;;;;;16.02;6.95;;;13.00;99.90;;;;;;5000092;28;20089;-62
2022/05/10 02:12:00;;;;;;;12.40;6.85;;;13.30;99.90;;;;;;5017690;28;20073;-62
2022/05/10 02:14:52;;;;;;;18.92;6.60;;;13.10;99.90;;;;;;4999626;28;20054;-62
2022/05/10 02:17:34;;;;;;;16.33;6.30;;;13.00;99.90;;;;;;5016836;28;20403;-62
2022/05/10 02:20:09;;;;;;;12.63;6.35;;;13.00;99.90;;;;;;5017691;28;20088;-62
2022/05/10 02:23:04;;;;;;;17.38;6.82;;;13.10;99.90;;;;;;5018239;28;20073;-62
2022/05/10 02:25:35;;;;;;;15.68;6.43;;;13.10;99.90;;;;;;5014601;28;20075;-62
2022/05/10 02:28:10;;;;;;;16.65;6.70;;;13.10;99.90;;;;;;4999704;28;20084;-62
2022/05/10 02:30:36;;;;;;;21.85;7.22;;;13.00;99.90;;;;;;5017597;28;20047;-62
2022/05/10 02:33:06;;;;;;;11.65;6.43;;;12.90;99.90;;;;;;5017617;28;20498;-62
2022/05/10 02:35:49;;;;;;;13.73;7.13;;;13.20;99.90;;;;;;5016642;28;20104;-62
2022/05/10 02:38:24;;;;;;;13.05;6.43;;;13.10;99.90;;;;;;4999327;28;20049;-62
2022/05/10 02:40:52;;;;;;;12.27;6.53;;;13.10;99.90;;;;;;5017043;28;20049;-62
2022/05/10 02:43:23;;;;;;;13.15;6.55;;;13.00;99.90;;;;;;4999363;28;20073;-62
2022/05/10 02:45:50;;;;;;;13.48;6.60;;;;;;;;;;4999185;28;20046;-62
2022/05/10 02:48:26;;;;;;;14.43;7.00;;;13.10;99.90;;;;;;4999927;28;20046;-62
2022/05/10 02:50:51;;;;;;;17.00;7.20;;;13.00;99.90;;;;;;5016340;28;20042;-62
2022/05/10 02:53:17;;;;;;;11.60;5.80;;;13.10;99.90;;;;;;5015173;28;20511;-61
2022/05/10 02:55:58;;;;;;;15.98;6.97;;;13.00;99.90;;;;;;5015790;28;20077;-62
2022/05/10 02:58:37;;;;;;;13.20;6.60;;;13.00;99.90;;;;;;4999401;28;20041;-62
2022/05/10 03:01:40;;;;;;;15.82;6.07;;;12.90;99.90;;;;;;5016313;28;20522;-62
2022/05/10 03:04:08;;;;;;;15.68;6.20;;;13.20;99.90;;;;;;5016742;28;20560;-62
2022/05/10 03:06:36;;;;;;;16.23;8.40;;;13.10;99.90;;;;;;5015347;28;20249;-62
2022/05/10 03:09:03;;;;;;;12.60;6.85;;;13.10;99.90;;;;;;5016417;28;20045;-62
2022/05/10 03:11:29;;;;;;;14.80;6.63;;;13.00;99.90;;;;;;5016716;28;20456;-62
2022/05/10 03:13:55;;;;;;;12.40;6.50;;;13.10;99.90;;;;;;4998933;28;20062;-62
2022/05/10 03:16:23;;;;;;;17.33;6.65;;;12.90;99.90;;;;;;5016524;28;20117;-62
2022/05/10 03:18:49;;;;;;;12.35;6.85;;;13.10;99.90;;;;;;5016479;28;20061;-62
2022/05/10 03:21:15;;;;;;;15.93;6.97;;;13.10;99.90;;;;;;4999698;28;20404;-62
2022/05/10 03:23:41;;;;;;;18.58;7.22;;;13.20;99.90;;;;;;4999204;28;20044;-62
2022/05/10 03:26:07;;;;;;;17.13;7.57;;;;;;;;;;4998907;28;20117;-63
2022/05/10 03:28:33;;;;;;;14.90;7.05;;;13.20;99.90;;;;;;5016602;28;20042;-62
2022/05/10 03:30:58;;;;;;;14.55;8.23;;;13.10;99.90;;;;;;4982114;28;20050;-62
2022/05/10 03:33:24;;;;;;;17.00;7.45;;;13.30;99.90;;;;;;5016379;28;20053;-62
2022/05/10 03:35:49;;;;;;;14.30;7.38;;;13.20;99.90;;;;;;5015770;28;20073;-62
2022/05/10 03:38:15;;;;;;;12.70;6.82;;;13.30;99.90;;;;;;4982430;28;20038;-62
2022/05/10 03:40:41;;;;;;;16.40;7.30;;;13.20;99.90;;;;;;5016281;28;20042;-62
2022/05/10 03:43:08;;;;;;;16.67;7.97;;;13.30;99.90;;;;;;5014139;28;20042;-62
2022/05/10 03:45:34;;;;;;;15.38;7.15;;;13.30;99.90;;;;;;4998228;28;20204;-62
2022/05/10 03:48:00;;;;;;;13.70;8.02;;;13.20;99.90;;;;;;4999481;28;20056;-62
2022/05/10 03:50:26;;;;;;;15.20;7.57;;;13.10;99.90;;;;;;5016335;28;20046;-62
2022/05/10 03:52:52;;;;;;;16.58;6.85;;;13.30;99.90;;;;;;5016162;28;20125;-63
2022/05/10 03:55:22;;;;;;;20.08;7.97;;;13.30;99.90;;;;;;4998959;28;20157;-62
2022/05/10 03:57:48;;;;;;;10.48;7.63;;;13.20;99.90;;;;;;5015370;28;20173;-62
2022/05/10 04:00:17;;;;;;;19.85;7.70;;;13.10;99.90;;;;;;5016432;28;20508;-62
2022/05/10 04:02:44;;;;;;;12.32;7.72;;;13.20;99.90;;;;;;5016370;28;20046;-63
2022/05/10 04:05:10;;;;;;;15.63;7.68;;;13.30;99.90;;;;;;5016201;28;20038;-62
2022/05/10 04:07:36;;;;;;;13.73;8.20;;;13.30;99.90;;;;;;4999308;28;20085;-62
2022/05/10 04:10:03;;;;;;;13.88;7.78;;;13.30;99.90;;;;;;5016664;28;20077;-62
2022/05/10 04:12:28;;;;;;;17.88;8.75;;;13.30;99.90;;;;;;4998185;28;20077;-62
2022/05/10 04:14:55;;;;;;;18.40;8.18;;;13.10;99.90;;;;;;5015448;28;20510;-62
2022/05/10 04:17:21;;;;;;;14.45;8.07;;;13.40;99.90;;;;;;4982534;28;20117;-62
2022/05/10 04:19:47;;;;;;;14.90;8.15;;;;;;;;;;5015583;28;20141;-62
2022/05/10 04:22:12;;;;;;;15.02;7.82;;;13.30;99.90;;;;;;5015485;28;20042;-62
2022/05/10 04:24:39;;;;;;;14.52;8.20;;;13.40;99.90;;;;;;4995677;28;20420;-62
2022/05/10 04:27:05;;;;;;;17.65;9.05;;;;;;;;;;4994410;28;20504;-62
2022/05/10 04:29:31;;;;;;;12.77;7.15;;;13.40;99.90;;;;;;4983365;28;20064;-62
2022/05/10 04:31:56;;;;;;;17.98;8.65;;;13.50;99.90;;;;;;4999815;28;20026;-62
2022/05/10 04:34:22;;;;;;;20.63;8.57;;;13.60;99.90;;;;;;4995058;28;20122;-62
2022/05/10 04:36:48;;;;;;;12.75;8.18;;;13.50;99.90;;;;;;4993539;28;20042;-62
2022/05/10 04:39:13;;;;;;;15.18;9.45;;;13.50;99.90;;;;;;4994841;28;20038;-62
2022/05/10 04:41:44;;;;;;;14.93;8.18;;;13.60;99.90;;;;;;4993774;28;20046;-62
2022/05/10 04:44:11;;;;;;;14.10;8.32;;;13.60;99.90;;;;;;4994638;28;20042;-62
2022/05/10 04:46:38;;;;;;;13.25;8.43;;;13.70;99.90;;;;;;5011680;28;20040;-62
2022/05/10 04:49:06;;;;;;;16.13;8.48;;;13.60;99.90;;;;;;5014827;28;20064;-62
2022/05/10 04:51:32;;;;;;;15.00;8.32;;;;;;;;;;5012873;28;20454;-63
2022/05/10 04:53:58;;;;;;;16.83;9.48;;;13.90;99.90;;;;;;5012541;28;20037;-64
2022/05/10 04:56:24;;;;;;;13.73;8.18;;;13.70;99.90;;;;;;5013228;28;20099;-64
2022/05/10 04:58:54;;;;;;;14.77;8.02;;;13.70;99.90;;;;;;5013083;28;20042;-64
2022/05/10 05:01:22;;;;;;;15.65;8.65;;;13.80;99.90;;;;;;5013113;28;20048;-63
2022/05/10 05:03:49;;;;;;;15.95;9.32;;;13.70;99.90;;;;;;5011454;28;20411;-64
2022/05/10 05:06:15;;;;;;;14.90;8.40;;;13.90;99.90;;;;;;4980792;28;20089;-64
2022/05/10 05:08:41;;;;;;;15.23;8.20;;;14.00;99.90;;;;;;4995166;28;20042;-64
2022/05/10 05:11:06;;;;;;;21.42;10.30;;;14.00;99.90;;;;;;5010112;28;20412;-63
2022/05/10 05:13:32;;;;;;;16.02;8.23;;;;;;;;;;5016893;28;20411;-63
2022/05/10 05:15:58;;;;;;;15.40;8.85;;;14.10;99.90;;;;;;5016644;28;20050;-63
2022/05/10 05:18:24;;;;;;;15.35;8.13;;;14.20;99.90;;;;;;5017087;28;20121;-63
2022/05/10 05:20:50;;;;;;;14.90;9.23;;;14.20;99.90;;;;;;4999180;28;20050;-63
2022/05/10 05:23:18;;;;;;;17.20;8.65;;;14.20;99.90;;;;;;5017000;28;20033;-63
2022/05/10 05:25:45;;;;;;;15.63;8.07;;;14.20;99.90;;;;;;5016627;28;20061;-63
2022/05/10 05:28:11;;;;;;;16.40;8.40;;;14.30;99.90;;;;;;5016855;28;20038;-63
2022/05/10 05:30:38;;;;;;;13.48;7.70;;;14.30;99.90;;;;;;5016696;28;20172;-63
2022/05/10 05:33:05;;;;;;;15.57;8.00;;;14.50;99.90;;;;;;5016861;28;20042;-63
2022/05/10 05:35:31;;;;;;;14.63;8.48;;;14.30;99.90;;;;;;5016764;28;20136;-63
2022/05/10 05:37:56;;;;;;;12.30;7.57;;;14.50;99.90;;;;;;5004637;28;20226;-63
2022/05/10 05:40:24;;;;;;;16.98;7.85;;;14.50;99.90;;;;;;4995652;28;20046;-63
2022/05/10 05:42:50;;;;;;;13.68;7.80;;;14.60;99.90;;;;;;4985618;28;20041;-63
2022/05/10 05:45:18;;;;;;;14.25;7.93;;;14.80;99.90;;;;;;5016372;28;20038;-64
2022/05/10 05:47:44;;;;;;;15.13;7.70;;;;;;;;;;4994616;28;20137;-64
2022/05/10 05:50:13;;;;;;;13.32;7.45;;;14.70;99.90;;;;;;5006495;28;20046;-62
2022/05/10 05:52:39;;;;;;;12.55;7.57;;;14.80;99.90;;;;;;5012552;28;20108;-63
2022/05/10 05:55:06;;;;;;;10.60;7.65;;;14.80;99.90;;;;;;5016831;28;20044;-64
2022/05/10 05:57:32;;;;;;;13.32;7.68;;;14.80;99.90;;;;;;5016990;28;20128;-64
2022/05/10 06:00:01;;;;;;;13.63;7.60;;;15.00;99.90;;;;;;4998540;28;20547;-64
2022/05/10 06:02:27;;;;;;;15.15;7.53;;;15.10;99.90;;;;;;4998427;28;20042;-64
2022/05/10 06:04:53;;;;;;;11.70;7.25;;;15.00;99.90;;;;;;5013784;28;21000;-64
2022/05/10 06:07:19;;;;;;;17.73;9.27;;;15.20;99.90;;;;;;4980060;28;20034;-64
2022/05/10 06:09:46;;;;;;;14.60;7.72;;;15.50;99.90;;;;;;4988780;28;20045;-64
2022/05/10 06:12:16;;;;;;;16.90;7.75;;;15.50;99.90;;;;;;4994208;28;20477;-64
2022/05/10 06:14:42;;;;;;;15.18;8.15;;;15.70;99.90;;;;;;4996624;28;20125;-64
2022/05/10 06:17:08;;;;;;;12.43;7.93;;;15.70;99.90;;;;;;4994829;28;20117;-64
2022/05/10 06:19:36;;;;;;;24.85;8.15;;;15.80;99.90;;;;;;5010779;28;20041;-65
2022/05/10 06:22:02;;;;;;;21.70;8.27;;;15.90;99.90;;;;;;4989534;28;20042;-65
2022/05/10 06:24:27;;;;;;;16.23;6.95;;;16.10;99.90;;;;;;5008911;28;20117;-65
2022/05/10 06:26:53;;;;;;;17.00;7.85;;;16.20;99.90;;;;;;5010584;28;20122;-64
2022/05/10 06:29:19;;;;;;;11.77;7.18;;;16.10;99.90;;;;;;5005802;28;20042;-64
2022/05/10 06:31:46;;;;;;;14.95;7.57;;;16.30;99.90;;;;;;5002728;28;20037;-63
2022/05/10 06:34:12;;;;;;;13.57;6.90;;;16.50;99.90;;;;;;4987414;28;20092;-64
2022/05/10 06:36:39;;;;;;;10.52;6.30;;;16.50;99.90;;;;;;5002020;28;20061;-68
2022/05/10 06:39:04;;;;;;;12.18;7.55;;;16.70;99.90;;;;;;4998976;28;20046;-65
2022/05/10 06:41:31;;;;;;;13.23;7.40;;;16.80;99.90;;;;;;5001814;28;20038;-65
2022/05/10 06:43:58;;;;;;;15.82;6.95;;;17.10;99.90;;;;;;4978298;28;20088;-65
2022/05/10 06:46:24;;;;;;;12.75;7.25;;;17.10;99.90;;;;;;4982408;28;20046;-65
2022/05/10 06:48:49;;;;;;;9.38;5.93;;;17.20;99.90;;;;;;4996350;28;20040;-65
2022/05/10 06:51:17;;;;;;;11.30;6.05;;;17.30;99.90;;;;;;4994722;28;20082;-65
2022/05/10 06:53:43;;;;;;;14.15;5.90;;;17.80;99.90;;;;;;4995697;28;20049;-65
2022/05/10 06:56:10;;;;;;;10.38;6.45;;;17.90;99.90;;;;;;4995640;28;20038;-65
2022/05/10 06:58:36;;;;;;;12.05;5.50;;;18.00;99.90;;;;;;4995508;28;20081;-65
2022/05/10 07:01:02;;;;;;;9.95;5.32;;;18.10;99.90;;;;;;5023604;28;20041;-65
2022/05/10 07:03:32;;;;;;;10.18;5.05;;;17.90;99.90;;;;;;5015519;28;20070;-65
2022/05/10 07:05:59;;;;;;;8.30;5.07;;;18.30;99.90;;;;;;5015015;28;20037;-65
2022/05/10 07:08:25;;;;;;;15.30;5.43;;;18.50;99.90;;;;;;5015033;28;20045;-65
2022/05/10 07:10:51;;;;;;;9.55;5.00;;;18.70;99.90;;;;;;4997144;28;20128;-65
2022/05/10 07:13:18;;;;;;;14.52;5.50;;;18.60;99.90;;;;;;5013905;28;20046;-64
2022/05/10 07:15:46;;;;;;;9.32;4.50;;;19.00;99.90;;;;;;4992775;28;20050;-64
2022/05/10 07:18:13;;;;;;;12.18;4.88;;;18.90;99.90;;;;;;5012644;28;20053;-64
2022/05/10 07:20:39;;;;;;;9.40;4.25;;;18.90;99.90;;;;;;5013474;28;20120;-66
2022/05/10 07:23:05;;;;;;;10.75;5.43;;;19.10;99.90;;;;;;5012173;28;20042;-64
2022/05/10 07:25:31;;;;;;;10.85;5.30;;;19.10;99.90;;;;;;5012087;28;20508;-64
2022/05/10 07:27:57;;;;;;;11.77;4.57;;;19.30;99.90;;;;;;5013252;28;20102;-63
2022/05/10 07:30:25;;;;;;;8.70;4.22;;;19.00;99.90;;;;;;5010356;28;20049;-63
2022/05/10 07:32:51;;;;;;;12.27;4.60;;;19.30;99.90;;;;;;4978259;28;20369;-64
2022/05/10 07:36:23;;;;;;;11.25;4.75;;;19.30;99.90;;;;;;4984061;28;20091;-64
2022/05/10 07:38:09;;;;;;;11.77;6.15;;;19.60;99.90;;;;;;4984408;28;20129;-63
2022/05/10 07:40:35;;;;;;;6.85;4.35;;;19.70;99.90;;;;;;4991587;28;20575;-62
2022/05/10 07:43:00;;;;;;;10.90;4.10;;;19.50;99.90;;;;;;4995114;28;20069;-64
2022/05/10 07:45:26;;;;;;;12.00;3.85;;;19.80;99.90;;;;;;4996554;28;20080;-64
2022/05/10 07:47:52;;;;;;;13.05;3.83;;;19.80;99.90;;;;;;4971843;28;20042;-64
2022/05/10 07:50:17;;;;;;;9.93;4.25;;;20.00;99.90;;;;;;4993478;28;20046;-64
2022/05/10 07:52:44;;;;;;;13.27;3.90;;;20.00;99.90;;;;;;5008259;28;20025;-63
2022/05/10 07:55:12;;;;;;;7.65;4.45;;;19.90;99.90;;;;;;5011883;28;20048;-64
2022/05/10 07:57:39;;;;;;;6.18;3.85;;;20.00;99.90;;;;;;4995309;28;20056;-64
2022/05/10 08:00:08;;;;;;;12.25;5.82;;;20.10;99.90;;;;;;5012737;28;20049;-64
2022/05/10 08:02:35;;;;;;;8.23;4.32;;;20.00;99.90;;;;;;5011518;28;20516;-64
2022/05/10 08:05:02;;;;;;;11.48;4.65;;;19.70;99.90;;;;;;5010306;28;20053;-64
2022/05/10 08:07:28;;;;;;;10.57;4.82;;;19.90;99.90;;;;;;5011543;28;20377;-64
2022/05/10 08:09:54;;;;;;;11.70;4.38;;;20.00;99.90;;;;;;4994884;28;20041;-64
2022/05/10 08:12:20;;;;;;;10.52;4.82;;;20.00;99.90;;;;;;5011208;28;20042;-64
2022/05/10 08:14:45;;;;;;;11.32;4.07;;;20.10;99.90;;;;;;5011420;28;20049;-64
2022/05/10 08:17:11;;;;;;;8.30;3.85;;;20.00;99.90;;;;;;4993508;28;20065;-64
2022/05/10 08:19:36;;;;;;;8.32;3.47;;;19.90;99.90;;;;;;5010433;28;20042;-64
2022/05/10 08:22:02;;;;;;;12.43;4.55;;;19.90;99.90;;;;;;5011320;28;20061;-64
2022/05/10 08:24:28;;;;;;;9.48;3.83;;;20.00;99.90;;;;;;5011460;28;20385;-64
2022/05/10 08:26:53;;;;;;;7.97;3.47;;;20.10;99.90;;;;;;4994751;28;20052;-64
2022/05/10 08:29:19;;;;;;;10.25;3.25;;;20.10;99.90;;;;;;4994709;28;20064;-64
2022/05/10 08:31:45;;;;;;;5.47;3.53;;;20.20;99.90;;;;;;4994733;28;20067;-64
2022/05/10 08:34:10;;;;;;;10.60;3.38;;;20.50;99.90;;;;;;5012189;28;20065;-64
2022/05/10 08:36:36;;;;;;;10.00;3.78;;;20.40;99.90;;;;;;4994503;28;20037;-64
2022/05/10 08:39:01;;;;;;;7.55;3.50;;;20.60;99.90;;;;;;5010963;28;20041;-64
2022/05/10 08:41:42;;;;;;;7.25;3.55;;;20.50;99.90;;;;;;4994519;28;20073;-64
2022/05/10 08:44:14;;;;;;;8.38;3.13;;;20.30;99.90;;;;;;5012018;28;20046;-63
2022/05/10 08:46:43;;;;;;;9.55;3.42;;;20.30;99.90;;;;;;4994375;28;20545;-64
2022/05/10 08:49:22;;;;;;;7.10;3.42;;;20.40;99.90;;;;;;4994183;28;20038;-63
2022/05/10 08:51:48;;;;;;;7.20;3.40;;;20.30;99.90;;;;;;4992420;28;20053;-64
2022/05/10 08:54:14;;;;;;;5.45;3.13;;;20.40;99.90;;;;;;4992536;28;20142;-64
2022/05/10 08:56:46;;;;;;;8.63;3.40;;;20.50;99.90;;;;;;4974889;28;20113;-64
2022/05/10 08:59:42;;;;;;;9.93;4.30;;;20.40;99.90;;;;;;4991127;28;20038;-64
2022/05/10 09:02:15;;;;;;;9.65;3.78;;;20.30;99.90;;;;;;5011953;28;20416;-64
2022/05/10 09:05:15;;;;;;;7.47;3.42;;;20.30;99.90;;;;;;5011807;28;20041;-64
2022/05/10 09:07:52;;;;;;;9.43;4.00;;;20.30;99.90;;;;;;5011045;28;20141;-64
2022/05/10 09:10:30;;;;;;;8.18;4.07;;;20.60;99.90;;;;;;5011770;28;20042;-64
2022/05/10 09:13:06;;;;;;;8.68;3.70;;;20.60;99.90;;;;;;5011936;28;20415;-64
2022/05/10 09:15:38;;;;;;;10.77;4.30;;;20.70;99.90;;;;;;5026824;28;20128;-64
2022/05/10 09:18:09;;;;;;;7.93;4.25;;;20.80;99.90;;;;;;5027011;28;20060;-64
2022/05/10 09:20:40;;;;;;;8.13;4.30;;;20.90;99.90;;;;;;5011670;28;20054;-64
2022/05/10 09:23:08;;;;;;;17.25;4.43;;;20.90;99.90;;;;;;5027005;28;20092;-64
2022/05/10 09:25:37;;;;;;;10.63;4.50;;;21.00;99.90;;;;;;5010435;28;20475;-64
2022/05/10 09:28:10;;;;;;;11.10;5.25;;;20.90;99.90;;;;;;5011732;28;20042;-64
2022/05/10 09:30:35;;;;;;;9.82;4.78;;;21.00;99.90;;;;;;5010513;28;20096;-64
2022/05/10 09:36:10;;;;;;;11.90;5.03;;;21.20;99.90;;;;;;5010713;28;20053;-64
2022/05/10 09:38:44;;;;;;;9.40;4.63;;;21.10;99.90;;;;;;5010379;28;20518;-64
2022/05/10 09:41:46;;;;;;;11.35;5.53;;;21.30;99.90;;;;;;5026807;28;20042;-64
2022/05/10 09:44:29;;;;;;;11.88;5.13;;;21.30;99.90;;;;;;5010306;28;20085;-64
2022/05/10 09:47:17;;;;;;;8.73;4.55;;;21.10;99.90;;;;;;5006254;28;20957;-64
2022/05/10 09:49:43;;;;;;;7.88;5.32;;;21.20;99.90;;;;;;5004575;28;20085;-63
2022/05/10 09:52:25;;;;;;;6.85;4.70;;;21.20;99.90;;;;;;4996636;28;20459;-64
2022/05/10 09:54:53;;;;;;;8.20;5.00;;;21.40;99.90;;;;;;4988417;28;20547;-64
2022/05/10 09:57:30;;;;;;;12.32;5.57;;;21.40;99.90;;;;;;5006901;28;20034;-64
2022/05/10 09:59:56;;;;;;;10.13;5.68;;;21.40;99.90;;;;;;4995919;28;20076;-64
2022/05/10 10:02:39;;;;;;;9.45;4.43;;;21.60;99.90;;;;;;5013037;28;20069;-63
2022/05/10 10:05:34;;;;;;;8.18;5.13;;;21.40;99.90;;;;;;4995701;28;20038;-63
2022/05/10 10:08:00;;;;;;;8.48;5.25;;;21.70;99.90;;;;;;4980312;28;20054;-63
2022/05/10 10:10:28;;;;;;;7.40;4.18;;;21.80;99.90;;;;;;5012809;28;20514;-63
2022/05/10 10:12:54;;;;;;;11.05;4.95;;;22.00;99.90;;;;;;5013591;28;20030;-62
2022/05/10 10:15:41;;;;;;;12.18;5.78;;;21.80;99.90;;;;;;5013667;28;20516;-62
2022/05/10 10:18:10;;;;;;;13.00;5.20;;;21.80;99.90;;;;;;5013778;28;20046;-64
2022/05/10 10:20:51;;;;;;;9.38;5.18;;;21.90;99.90;;;;;;4996046;28;20033;-64
2022/05/10 10:23:22;;;;;;;7.85;5.28;;;22.30;99.90;;;;;;4994977;28;20124;-64
2022/05/10 10:25:50;;;;;;;8.90;5.57;;;22.30;99.90;;;;;;5014533;28;20539;-64
2022/05/10 10:28:31;;;;;;;16.38;5.80;;;22.10;99.90;;;;;;4996117;28;20069;-64
2022/05/10 10:31:03;;;;;;;7.10;4.85;;;22.00;99.90;;;;;;4993572;28;20050;-64
2022/05/10 10:33:34;;;;;;;10.82;5.65;;;22.20;99.90;;;;;;4994756;28;20054;-63
2022/05/10 10:36:09;;;;;;;12.20;5.00;;;22.10;99.90;;;;;;4986216;28;20038;-64
2022/05/10 10:38:43;;;;;;;;;;;22.10;99.90;;;;;;4977611;28;20046;-64
2022/05/10 10:41:12;;;;;;;11.27;5.50;;;22.10;99.90;;;;;;4994909;28;20364;-64
2022/05/10 10:43:50;;;;;;;13.07;5.55;;;22.10;99.90;;;;;;4994665;28;20500;-64
2022/05/10 10:46:25;;;;;;;10.45;5.47;;;22.20;99.90;;;;;;4990660;28;20046;-64
2022/05/10 10:49:11;;;;;;;;;;;22.10;99.90;;;;;;5002433;28;20049;-64
2022/05/10 10:51:37;;;;;;;12.50;5.03;;;22.00;99.90;;;;;;5002894;28;19980;-64
2022/05/10 10:54:04;;;;;;;12.93;5.53;;;21.80;99.90;;;;;;5001160;28;20042;-64
2022/05/10 10:56:51;;;;;;;8.98;5.78;;;21.80;99.90;;;;;;4975602;28;20038;-63
2022/05/10 10:59:40;;;;;;;13.10;6.18;;;21.60;99.90;;;;;;5010408;28;20030;-64
2022/05/10 11:02:33;;;;;;;11.75;4.97;;;21.80;99.90;;;;;;5010756;28;20530;-64
2022/05/10 11:05:33;;;;;;;8.88;3.80;;;22.00;99.90;;;;;;4994176;28;20418;-64
2022/05/10 11:08:43;;;;;;;24.98;3.67;;;21.90;99.90;;;;;;4982057;28;20104;-64
2022/05/10 11:11:26;;;;;;;9.95;4.13;;;21.40;99.90;;;;;;5005792;28;20042;-64
2022/05/10 11:14:04;;;;;;;17.05;5.20;;;21.60;99.90;;;;;;5014894;28;20049;-64
2022/05/10 11:16:48;;;;;;;7.85;3.17;;;21.80;99.90;;;;;;5012484;28;20038;-63
2022/05/10 11:19:41;;;;;;;6.43;2.88;;;21.80;99.90;;;;;;5010640;28;20126;-65
2022/05/10 11:22:22;;;;;;;5.22;2.13;;;21.60;99.90;;;;;;5011398;28;20550;-64
2022/05/10 11:24:50;;;;;;;12.02;3.50;;;21.80;99.90;;;;;;5010601;28;20096;-63
2022/05/10 11:28:01;;;;;;;13.80;3.03;;;21.70;99.90;;;;;;5013278;28;20470;-63
2022/05/10 11:30:32;;;;;;;8.48;3.17;;;21.70;99.90;;;;;;4963498;28;20133;-63
2022/05/10 11:33:09;;;;;;;11.50;2.33;;;21.70;99.90;;;;;;5009732;28;20042;-63
2022/05/10 11:35:57;;;;;;;9.70;2.70;;;21.60;99.90;;;;;;4993163;28;20088;-63
2022/05/10 11:38:49;;;;;;;10.73;2.92;;;22.00;99.90;;;;;;5011003;28;20049;-64
2022/05/10 11:41:47;;;;;;;6.68;2.72;;;22.10;99.90;;;;;;4981282;28;20076;-64
2022/05/10 11:45:00;;;;;;;7.50;3.13;;;22.10;99.90;;;;;;5010410;28;20072;-63
2022/05/10 11:47:36;;;;;;;10.00;3.22;;;22.30;99.90;;;;;;4994288;28;20506;-63
2022/05/10 11:50:31;;;;;;;9.48;3.33;;;22.10;99.90;;;;;;5012087;28;20314;-63
2022/05/10 11:53:20;;;;;;;10.45;3.53;;;22.50;99.90;;;;;;5011889;28;20029;-63
2022/05/10 11:55:51;;;;;;;10.95;3.83;;;22.50;99.90;;;;;;5012177;28;20042;-64
2022/05/10 11:58:17;;;;;;;13.98;5.03;;;22.30;99.90;;;;;;4994347;28;20042;-64
2022/05/10 12:00:52;;;;;;;12.10;5.70;;;22.80;99.90;;;;;;5010990;28;20036;-64
2022/05/10 12:03:36;;;;;;;25.23;6.25;;;22.50;99.90;;;;;;4993113;28;20046;-64
2022/05/10 12:06:24;;;;;;;14.32;5.68;;;22.40;99.90;;;;;;5010597;28;20045;-64
2022/05/10 12:09:00;;;;;;;12.15;5.97;;;22.80;99.90;;;;;;5012559;28;20116;-64
2022/05/10 12:11:32;;;;;;;12.75;5.05;;;22.60;99.90;;;;;;4993679;28;20121;-64
2022/05/10 12:22:50;;;;;;;15.43;4.22;;;22.30;99.90;;;;;;5010031;28;20041;-64
2022/05/10 12:25:54;;;;;;;9.48;3.67;;;22.40;99.90;;;;;;4993938;28;20041;-64
2022/05/10 12:28:43;;;;;;;11.30;4.25;;;22.30;99.90;;;;;;4993729;28;20050;-64
2022/05/10 12:31:30;;;;;;;14.25;4.43;;;22.40;99.90;;;;;;4993668;28;20492;-64
2022/05/10 12:34:10;;;;;;;10.32;3.65;;;22.30;99.90;;;;;;5010186;28;20400;-64
2022/05/10 12:36:39;;;;;;;7.78;4.00;;;22.40;99.90;;;;;;5010022;28;20037;-64
2022/05/10 12:39:25;;;;;;;12.52;2.92;;;22.40;99.90;;;;;;4993491;28;20057;-64
2022/05/10 12:42:13;;;;;;;6.60;3.55;;;22.40;99.90;;;;;;4993476;28;20109;-64
2022/05/10 12:45:16;;;;;;;9.07;3.13;;;22.40;99.90;;;;;;5009568;28;20038;-64
2022/05/10 12:48:06;;;;;;;13.13;3.47;;;22.40;99.90;;;;;;4993303;28;20133;-64
2022/05/10 12:51:04;;;;;;;11.02;3.47;;;22.20;99.90;;;;;;5011137;28;20042;-64
2022/05/10 12:53:57;;;;;;;4.07;2.70;;;22.20;99.90;;;;;;5011024;28;20077;-65
2022/05/10 12:56:42;;;;;;;6.80;2.50;;;22.20;99.90;;;;;;5009866;28;20472;-65
2022/05/10 12:59:28;;;;;;;11.75;2.70;;;22.00;99.90;;;;;;5002406;28;20121;-63
2022/05/10 13:01:57;;;;;;;9.10;2.35;;;21.80;99.90;;;;;;5001679;28;20050;-64
2022/05/10 13:04:26;;;;;;;10.02;3.50;;;22.00;99.90;;;;;;4987966;28;20049;-64
2022/05/10 13:07:14;;;;;;;9.40;2.80;;;21.50;99.90;;;;;;4993227;28;20121;-64
2022/05/10 13:09:50;;;;;;;29.30;4.80;;;21.80;99.90;;;;;;5013271;28;20037;-64
2022/05/10 13:12:25;;;;;;;18.33;3.45;;;21.80;99.90;;;;;;5009656;28;20053;-64
2022/05/10 13:15:15;;;;;;;12.93;3.05;;;21.70;99.90;;;;;;4976756;28;20353;-64
2022/05/10 13:17:54;;;;;;;10.57;2.78;;;21.80;99.90;;;;;;4992183;28;20072;-64
2022/05/10 13:20:27;;;;;;;23.25;5.18;;;21.70;99.90;;;;;;5010804;28;20705;-64
2022/05/10 13:23:01;;;;;;;10.82;2.35;;;21.40;99.90;;;;;;5010422;28;20500;-64
2022/05/10 13:25:35;;;;;;;7.10;2.60;;;21.60;99.90;;;;;;5010723;28;20038;-64
2022/05/10 13:28:21;;;;;;;9.13;2.55;;;21.40;99.90;;;;;;4992933;28;20073;-64